sensor_id;sensor_type;location;lat;lon;timestamp;pressure;altitude;pressure_sealevel;temperature;humidity
67377;BME280;54261;46.086;6.588;2022-08-27T00:02:34;92388.56;;;19.77;40.28
67377;BME280;54261;46.086;6.588;2022-08-27T00:07:36;92372.94;;;19.66;41.07
67377;BME280;54261;46.086;6.588;2022-08-27T00:12:39;92391.28;;;19.77;40.69
67377;BME280;54261;46.086;6.588;2022-08-27T00:17:43;92380.88;;;19.37;41.15
67377;BME280;54261;46.086;6.588;2022-08-27T00:22:46;92385.13;;;18.93;42.73
67377;BME280;54261;46.086;6.588;2022-08-27T00:27:48;92383.25;;;19.01;42.37
67377;BME280;54261;46.086;6.588;2022-08-27T00:32:51;92372.16;;;19.17;41.80
67377;BME280;54261;46.086;6.588;2022-08-27T00:37:53;92371.31;;;19.09;41.37
67377;BME280;54261;46.086;6.588;2022-08-27T00:42:55;92383.75;;;19.10;41.37
67377;BME280;54261;46.086;6.588;2022-08-27T00:47:59;92389.16;;;18.72;42.08
67377;BME280;54261;46.086;6.588;2022-08-27T00:53:06;92392.22;;;19.05;41.71
67377;BME280;54261;46.086;6.588;2022-08-27T00:58:33;92385.22;;;19.04;41.92
67377;BME280;54261;46.086;6.588;2022-08-27T01:03:39;92393.34;;;18.97;42.12
67377;BME280;54261;46.086;6.588;2022-08-27T01:08:47;92392.63;;;19.07;42.00
67377;BME280;54261;46.086;6.588;2022-08-27T01:13:52;92366.34;;;18.81;42.43
67377;BME280;54261;46.086;6.588;2022-08-27T01:19:06;92390.56;;;18.93;42.62
67377;BME280;54261;46.086;6.588;2022-08-27T01:29:30;92377.47;;;19.06;41.29
67377;BME280;54261;46.086;6.588;2022-08-27T01:34:33;92374.69;;;18.99;40.75
67377;BME280;54261;46.086;6.588;2022-08-27T01:39:36;92375.41;;;18.92;40.96
67377;BME280;54261;46.086;6.588;2022-08-27T01:44:50;92366.47;;;18.92;41.05
67377;BME280;54261;46.086;6.588;2022-08-27T01:49:54;92358.53;;;18.79;41.14
67377;BME280;54261;46.086;6.588;2022-08-27T01:54:56;92368.00;;;18.20;42.98
67377;BME280;54261;46.086;6.588;2022-08-27T01:59:59;92369.06;;;18.46;42.09
67377;BME280;54261;46.086;6.588;2022-08-27T02:05:01;92366.22;;;18.36;42.31
67377;BME280;54261;46.086;6.588;2022-08-27T02:10:06;92370.19;;;18.42;42.42
67377;BME280;54261;46.086;6.588;2022-08-27T02:15:09;92367.94;;;18.47;42.53
67377;BME280;54261;46.086;6.588;2022-08-27T02:20:13;92366.44;;;18.54;42.36
67377;BME280;54261;46.086;6.588;2022-08-27T02:25:16;92361.66;;;18.43;42.54
67377;BME280;54261;46.086;6.588;2022-08-27T02:30:22;92360.97;;;18.50;42.52
67377;BME280;54261;46.086;6.588;2022-08-27T02:35:25;92338.31;;;18.39;41.85
67377;BME280;54261;46.086;6.588;2022-08-27T02:40:27;92350.94;;;18.54;41.54
67377;BME280;54261;46.086;6.588;2022-08-27T02:45:30;92350.84;;;18.47;41.65
67377;BME280;54261;46.086;6.588;2022-08-27T02:50:33;92348.09;;;18.43;42.17
67377;BME280;54261;46.086;6.588;2022-08-27T02:55:36;92343.41;;;18.40;41.54
67377;BME280;54261;46.086;6.588;2022-08-27T03:00:42;92341.34;;;18.30;42.43
67377;BME280;54261;46.086;6.588;2022-08-27T03:05:45;92337.88;;;18.33;41.86
67377;BME280;54261;46.086;6.588;2022-08-27T03:10:47;92320.84;;;18.36;41.86
67377;BME280;54261;46.086;6.588;2022-08-27T03:15:49;92328.16;;;18.28;41.70
67377;BME280;54261;46.086;6.588;2022-08-27T03:20:54;92322.75;;;18.01;42.69
67377;BME280;54261;46.086;6.588;2022-08-27T03:25:59;92321.22;;;17.73;44.10
67377;BME280;54261;46.086;6.588;2022-08-27T03:31:05;92311.16;;;18.04;43.07
67377;BME280;54261;46.086;6.588;2022-08-27T03:36:08;92310.59;;;17.91;43.47
67377;BME280;54261;46.086;6.588;2022-08-27T03:41:10;92311.97;;;18.09;43.11
67377;BME280;54261;46.086;6.588;2022-08-27T03:46:14;92302.44;;;18.22;42.12
67377;BME280;54261;46.086;6.588;2022-08-27T03:51:17;92299.34;;;18.20;41.99
67377;BME280;54261;46.086;6.588;2022-08-27T03:56:20;92309.84;;;18.25;41.67
67377;BME280;54261;46.086;6.588;2022-08-27T04:01:22;92304.41;;;18.22;41.53
67377;BME280;54261;46.086;6.588;2022-08-27T04:06:24;92298.19;;;18.21;41.29
67377;BME280;54261;46.086;6.588;2022-08-27T04:11:27;92294.13;;;18.08;41.46
67377;BME280;54261;46.086;6.588;2022-08-27T04:16:32;92305.06;;;18.15;41.34
67377;BME280;54261;46.086;6.588;2022-08-27T04:21:34;92294.22;;;17.84;42.31
67377;BME280;54261;46.086;6.588;2022-08-27T04:26:40;92307.19;;;17.98;41.72
67377;BME280;54261;46.086;6.588;2022-08-27T04:31:43;92304.47;;;17.68;42.70
67377;BME280;54261;46.086;6.588;2022-08-27T04:36:45;92310.47;;;17.81;42.62
67377;BME280;54261;46.086;6.588;2022-08-27T04:41:49;92306.22;;;17.83;42.46
67377;BME280;54261;46.086;6.588;2022-08-27T04:46:57;92315.13;;;17.84;42.08
67377;BME280;54261;46.086;6.588;2022-08-27T04:52:00;92311.66;;;17.83;42.53
67377;BME280;54261;46.086;6.588;2022-08-27T04:57:04;92317.50;;;17.85;42.53
67377;BME280;54261;46.086;6.588;2022-08-27T05:02:07;92314.69;;;17.78;42.15
67377;BME280;54261;46.086;6.588;2022-08-27T05:07:10;92309.00;;;17.87;41.85
67377;BME280;54261;46.086;6.588;2022-08-27T05:12:12;92299.19;;;17.78;41.82
67377;BME280;54261;46.086;6.588;2022-08-27T05:17:14;92310.59;;;17.91;42.38
67377;BME280;54261;46.086;6.588;2022-08-27T05:22:16;92319.94;;;17.94;42.84
67377;BME280;54261;46.086;6.588;2022-08-27T05:27:18;92313.47;;;18.06;42.39
67377;BME280;54261;46.086;6.588;2022-08-27T05:32:21;92309.88;;;17.98;42.34
67377;BME280;54261;46.086;6.588;2022-08-27T05:37:23;92322.75;;;18.01;42.32
67377;BME280;54261;46.086;6.588;2022-08-27T05:42:25;92319.34;;;18.08;42.51
67377;BME280;54261;46.086;6.588;2022-08-27T05:47:30;92319.41;;;18.15;42.45
67377;BME280;54261;46.086;6.588;2022-08-27T05:52:38;92323.88;;;18.27;42.70
67377;BME280;54261;46.086;6.588;2022-08-27T05:57:40;92318.00;;;18.25;42.49
67377;BME280;54261;46.086;6.588;2022-08-27T06:02:42;92324.22;;;18.26;42.70
67377;BME280;54261;46.086;6.588;2022-08-27T06:07:46;92305.38;;;18.10;43.33
67377;BME280;54261;46.086;6.588;2022-08-27T06:12:49;92313.13;;;17.77;44.57
67377;BME280;54261;46.086;6.588;2022-08-27T06:17:57;92293.25;;;17.69;44.72
67377;BME280;54261;46.086;6.588;2022-08-27T06:22:59;92314.94;;;17.69;45.09
67377;BME280;54261;46.086;6.588;2022-08-27T06:28:01;92277.56;;;17.55;45.14
67377;BME280;54261;46.086;6.588;2022-08-27T06:33:07;92310.34;;;18.04;44.46
67377;BME280;54261;46.086;6.588;2022-08-27T06:38:09;92204.16;;;17.44;44.45
67377;BME280;54261;46.086;6.588;2022-08-27T06:43:11;92300.19;;;18.28;43.62
67377;BME280;54261;46.086;6.588;2022-08-27T06:48:14;92299.16;;;18.40;43.53
67377;BME280;54261;46.086;6.588;2022-08-27T06:53:16;92303.38;;;18.03;44.65
67377;BME280;54261;46.086;6.588;2022-08-27T06:58:25;92318.53;;;18.08;44.54
67377;BME280;54261;46.086;6.588;2022-08-27T07:03:27;92277.09;;;18.11;44.16
67377;BME280;54261;46.086;6.588;2022-08-27T07:08:30;92304.84;;;18.65;43.40
67377;BME280;54261;46.086;6.588;2022-08-27T07:13:33;92308.03;;;16.51;48.20
67377;BME280;54261;46.086;6.588;2022-08-27T07:18:36;92305.25;;;14.53;52.97
67377;BME280;54261;46.086;6.588;2022-08-27T07:23:41;92302.84;;;16.43;48.63
67377;BME280;54261;46.086;6.588;2022-08-27T07:28:44;92308.25;;;17.09;47.32
67377;BME280;54261;46.086;6.588;2022-08-27T07:33:47;92321.13;;;17.16;47.17
67377;BME280;54261;46.086;6.588;2022-08-27T07:38:53;92311.63;;;17.02;46.92
67377;BME280;54261;46.086;6.588;2022-08-27T07:44:02;92315.41;;;17.75;45.87
67377;BME280;54261;46.086;6.588;2022-08-27T07:49:27;92322.81;;;17.01;47.22
67377;BME280;54261;46.086;6.588;2022-08-27T07:54:30;92314.78;;;17.31;47.18
67377;BME280;54261;46.086;6.588;2022-08-27T07:59:40;92320.31;;;18.57;44.93
67377;BME280;54261;46.086;6.588;2022-08-27T08:04:45;92346.13;;;18.40;44.26
67377;BME280;54261;46.086;6.588;2022-08-27T08:09:47;92342.00;;;16.49;50.62
67377;BME280;54261;46.086;6.588;2022-08-27T08:14:50;92335.78;;;15.02;54.43
67377;BME280;54261;46.086;6.588;2022-08-27T08:19:56;92329.97;;;15.51;53.27
67377;BME280;54261;46.086;6.588;2022-08-27T08:25:18;92342.59;;;16.78;51.26
67377;BME280;54261;46.086;6.588;2022-08-27T08:30:21;92333.31;;;18.10;46.83
67377;BME280;54261;46.086;6.588;2022-08-27T08:35:23;92339.22;;;14.54;54.77
67377;BME280;54261;46.086;6.588;2022-08-27T08:40:40;92345.69;;;17.27;49.43
67377;BME280;54261;46.086;6.588;2022-08-27T08:45:44;92340.50;;;13.62;58.84
67377;BME280;54261;46.086;6.588;2022-08-27T08:56:01;92339.53;;;17.30;49.62
67377;BME280;54261;46.086;6.588;2022-08-27T09:01:07;92336.16;;;14.27;57.24
67377;BME280;54261;46.086;6.588;2022-08-27T09:06:18;92333.19;;;13.63;60.14
67377;BME280;54261;46.086;6.588;2022-08-27T09:12:30;92326.47;;;13.69;60.41
67377;BME280;54261;46.086;6.588;2022-08-27T09:17:08;92330.13;;;13.89;58.66
67377;BME280;54261;46.086;6.588;2022-08-27T09:27:43;92327.56;;;15.46;56.47
67377;BME280;54261;46.086;6.588;2022-08-27T09:32:53;92329.03;;;15.79;54.91
67377;BME280;54261;46.086;6.588;2022-08-27T09:37:57;92318.03;;;17.98;50.21
67377;BME280;54261;46.086;6.588;2022-08-27T09:43:16;92320.19;;;19.29;45.21
67377;BME280;54261;46.086;6.588;2022-08-27T09:48:37;92330.38;;;15.02;55.76
67377;BME280;54261;46.086;6.588;2022-08-27T09:53:46;92324.69;;;16.97;53.04
67377;BME280;54261;46.086;6.588;2022-08-27T09:59:11;92312.47;;;14.65;56.55
67377;BME280;54261;46.086;6.588;2022-08-27T10:04:40;92309.66;;;16.99;51.36
67377;BME280;54261;46.086;6.588;2022-08-27T10:10:42;92318.94;;;16.98;51.86
67377;BME280;54261;46.086;6.588;2022-08-27T10:15:19;92321.84;;;14.83;57.79
67377;BME280;54261;46.086;6.588;2022-08-27T10:20:35;92319.38;;;14.78;58.08
67377;BME280;54261;46.086;6.588;2022-08-27T10:26:23;92321.66;;;14.92;56.58
67377;BME280;54261;46.086;6.588;2022-08-27T10:31:36;92313.81;;;15.91;54.67
67377;BME280;54261;46.086;6.588;2022-08-27T10:36:56;92320.25;;;16.85;52.84
67377;BME280;54261;46.086;6.588;2022-08-27T10:42:25;92307.84;;;15.46;55.59
67377;BME280;54261;46.086;6.588;2022-08-27T10:47:40;92312.28;;;15.54;55.10
67377;BME280;54261;46.086;6.588;2022-08-27T10:53:10;92300.28;;;17.20;52.63
67377;BME280;54261;46.086;6.588;2022-08-27T10:58:29;92288.56;;;19.63;47.03
67377;BME280;54261;46.086;6.588;2022-08-27T11:03:40;92296.81;;;16.10;53.81
67377;BME280;54261;46.086;6.588;2022-08-27T11:08:49;92271.44;;;16.61;52.83
67377;BME280;54261;46.086;6.588;2022-08-27T11:13:52;92292.75;;;17.33;51.17
67377;BME280;54261;46.086;6.588;2022-08-27T11:19:11;92292.28;;;17.31;50.58
67377;BME280;54261;46.086;6.588;2022-08-27T11:29:29;92290.94;;;17.44;50.67
67377;BME280;54261;46.086;6.588;2022-08-27T11:34:55;92287.66;;;18.54;47.44
67377;BME280;54261;46.086;6.588;2022-08-27T11:50:24;92263.78;;;17.14;51.16
67377;BME280;54261;46.086;6.588;2022-08-27T11:55:31;92260.41;;;16.27;52.55
67377;BME280;54261;46.086;6.588;2022-08-27T12:00:37;92263.75;;;19.15;47.10
67377;BME280;54261;46.086;6.588;2022-08-27T12:05:44;92260.97;;;18.22;48.01
67377;BME280;54261;46.086;6.588;2022-08-27T12:10:57;92251.41;;;18.80;46.23
67377;BME280;54261;46.086;6.588;2022-08-27T12:26:36;92249.03;;;19.20;45.72
67377;BME280;54261;46.086;6.588;2022-08-27T12:31:41;92257.69;;;18.43;49.00
67377;BME280;54261;46.086;6.588;2022-08-27T12:36:50;92242.00;;;18.29;47.81
67377;BME280;54261;46.086;6.588;2022-08-27T12:41:54;92239.75;;;19.28;45.91
67377;BME280;54261;46.086;6.588;2022-08-27T12:47:00;92216.28;;;19.02;44.98
67377;BME280;54261;46.086;6.588;2022-08-27T13:08:33;92230.22;;;20.81;42.00
67377;BME280;54261;46.086;6.588;2022-08-27T13:13:36;92218.59;;;19.63;42.47
67377;BME280;54261;46.086;6.588;2022-08-27T13:18:38;92225.09;;;20.43;41.52
67377;BME280;54261;46.086;6.588;2022-08-27T13:24:11;92222.78;;;18.90;45.14
67377;BME280;54261;46.086;6.588;2022-08-27T13:29:10;92226.28;;;20.79;41.12
67377;BME280;54261;46.086;6.588;2022-08-27T13:34:17;92221.22;;;21.57;40.22
67377;BME280;54261;46.086;6.588;2022-08-27T13:39:20;92221.28;;;21.10;39.91
67377;BME280;54261;46.086;6.588;2022-08-27T13:44:26;92212.44;;;22.17;37.30
67377;BME280;54261;46.086;6.588;2022-08-27T13:49:35;92211.69;;;22.05;36.92
67377;BME280;54261;46.086;6.588;2022-08-27T13:54:50;92213.00;;;24.21;34.91
67377;BME280;54261;46.086;6.588;2022-08-27T13:59:52;92205.19;;;22.52;36.42
67377;BME280;54261;46.086;6.588;2022-08-27T14:05:13;92211.63;;;23.33;35.23
67377;BME280;54261;46.086;6.588;2022-08-27T14:15:28;92194.28;;;25.46;32.69
67377;BME280;54261;46.086;6.588;2022-08-27T14:20:32;92196.88;;;23.16;34.70
67377;BME280;54261;46.086;6.588;2022-08-27T14:25:35;92207.81;;;25.33;32.28
67377;BME280;54261;46.086;6.588;2022-08-27T14:30:37;92193.09;;;24.17;32.29
67377;BME280;54261;46.086;6.588;2022-08-27T14:35:40;92208.34;;;24.49;32.20
67377;BME280;54261;46.086;6.588;2022-08-27T14:40:45;92218.63;;;25.20;31.83
67377;BME280;54261;46.086;6.588;2022-08-27T14:45:47;92210.69;;;25.26;30.45
67377;BME280;54261;46.086;6.588;2022-08-27T14:50:52;92219.66;;;26.55;29.01
67377;BME280;54261;46.086;6.588;2022-08-27T14:55:54;92215.31;;;24.82;29.90
67377;BME280;54261;46.086;6.588;2022-08-27T15:01:01;92218.34;;;25.83;28.88
67377;BME280;54261;46.086;6.588;2022-08-27T15:06:04;92218.13;;;26.34;28.12
67377;BME280;54261;46.086;6.588;2022-08-27T15:11:37;92210.22;;;25.55;29.07
67377;BME280;54261;46.086;6.588;2022-08-27T15:16:42;92205.72;;;25.65;28.44
67377;BME280;54261;46.086;6.588;2022-08-27T15:21:46;92219.47;;;24.93;29.99
67377;BME280;54261;46.086;6.588;2022-08-27T15:26:51;92229.44;;;25.99;28.37
67377;BME280;54261;46.086;6.588;2022-08-27T15:31:53;92212.91;;;25.35;29.20
67377;BME280;54261;46.086;6.588;2022-08-27T15:36:56;92197.31;;;26.53;27.50
67377;BME280;54261;46.086;6.588;2022-08-27T15:41:58;92224.09;;;24.11;30.65
67377;BME280;54261;46.086;6.588;2022-08-27T15:47:08;92223.34;;;24.96;29.22
67377;BME280;54261;46.086;6.588;2022-08-27T15:52:12;92211.59;;;24.41;28.75
67377;BME280;54261;46.086;6.588;2022-08-27T15:57:20;92214.34;;;25.19;27.32
67377;BME280;54261;46.086;6.588;2022-08-27T16:02:23;92234.41;;;25.16;27.86
67377;BME280;54261;46.086;6.588;2022-08-27T16:07:26;92232.56;;;25.77;27.32
67377;BME280;54261;46.086;6.588;2022-08-27T16:12:29;92242.03;;;26.17;27.94
67377;BME280;54261;46.086;6.588;2022-08-27T17:18:30;92243.47;;;23.54;33.77
67377;BME280;54261;46.086;6.588;2022-08-27T17:23:40;92245.75;;;23.17;33.12
67377;BME280;54261;46.086;6.588;2022-08-27T17:28:44;92257.53;;;25.15;30.73
67377;BME280;54261;46.086;6.588;2022-08-27T17:33:49;92257.38;;;24.44;30.92
67377;BME280;54261;46.086;6.588;2022-08-27T17:38:51;92259.69;;;23.76;31.81
67377;BME280;54261;46.086;6.588;2022-08-27T17:43:57;92263.59;;;22.83;33.78
67377;BME280;54261;46.086;6.588;2022-08-27T17:49:00;92260.94;;;20.56;37.67
67377;BME280;54261;46.086;6.588;2022-08-27T17:54:03;92276.69;;;22.39;35.40
67377;BME280;54261;46.086;6.588;2022-08-27T17:59:07;92277.72;;;21.38;36.25
67377;BME280;54261;46.086;6.588;2022-08-27T18:04:11;92253.59;;;18.63;41.38
67377;BME280;54261;46.086;6.588;2022-08-27T18:09:13;92255.13;;;20.76;37.71
67377;BME280;54261;46.086;6.588;2022-08-27T18:14:17;92283.41;;;22.27;35.64
67377;BME280;54261;46.086;6.588;2022-08-27T18:19:19;92293.34;;;21.05;36.73
67377;BME280;54261;46.086;6.588;2022-08-27T18:24:22;92279.72;;;19.84;39.65
67377;BME280;54261;46.086;6.588;2022-08-27T18:29:26;92296.06;;;21.23;37.31
67377;BME280;54261;46.086;6.588;2022-08-27T18:34:28;92287.13;;;21.15;37.32
67377;BME280;54261;46.086;6.588;2022-08-27T18:39:30;92285.84;;;20.62;37.76
67377;BME280;54261;46.086;6.588;2022-08-27T18:44:41;92298.41;;;21.47;36.71
67377;BME280;54261;46.086;6.588;2022-08-27T18:49:44;92311.63;;;21.70;36.28
67377;BME280;54261;46.086;6.588;2022-08-27T18:54:46;92314.81;;;22.76;34.58
67377;BME280;54261;46.086;6.588;2022-08-27T18:59:55;92323.34;;;21.31;36.43
67377;BME280;54261;46.086;6.588;2022-08-27T19:04:58;92329.81;;;22.35;35.19
67377;BME280;54261;46.086;6.588;2022-08-27T19:10:05;92322.41;;;20.39;38.32
67377;BME280;54261;46.086;6.588;2022-08-27T19:15:11;92324.91;;;21.71;36.23
67377;BME280;54261;46.086;6.588;2022-08-27T19:20:14;92336.22;;;21.30;36.57
67377;BME280;54261;46.086;6.588;2022-08-27T19:25:20;92343.75;;;20.26;38.88
67377;BME280;54261;46.086;6.588;2022-08-27T19:30:24;92332.59;;;20.68;38.50
67377;BME280;54261;46.086;6.588;2022-08-27T19:35:27;92337.38;;;21.22;37.13
67377;BME280;54261;46.086;6.588;2022-08-27T19:40:30;92317.09;;;20.83;37.96
67377;BME280;54261;46.086;6.588;2022-08-27T19:45:34;92351.38;;;21.09;37.52
67377;BME280;54261;46.086;6.588;2022-08-27T19:50:42;92354.41;;;20.79;38.69
67377;BME280;54261;46.086;6.588;2022-08-27T19:55:45;92344.22;;;20.57;39.00
67377;BME280;54261;46.086;6.588;2022-08-27T20:00:49;92340.63;;;19.61;40.78
67377;BME280;54261;46.086;6.588;2022-08-27T20:05:52;92342.31;;;20.62;39.27
67377;BME280;54261;46.086;6.588;2022-08-27T20:10:55;92320.91;;;20.64;38.98
67377;BME280;54261;46.086;6.588;2022-08-27T20:15:58;92338.84;;;22.24;36.59
67377;BME280;54261;46.086;6.588;2022-08-27T20:21:00;92324.69;;;22.44;36.03
67377;BME280;54261;46.086;6.588;2022-08-27T20:26:07;92341.97;;;22.26;36.68
67377;BME280;54261;46.086;6.588;2022-08-27T20:31:09;92334.94;;;22.25;36.23
67377;BME280;54261;46.086;6.588;2022-08-27T20:36:12;92344.38;;;21.84;36.75
67377;BME280;54261;46.086;6.588;2022-08-27T20:41:15;92341.66;;;21.30;38.34
67377;BME280;54261;46.086;6.588;2022-08-27T20:46:21;92346.72;;;20.95;38.93
67377;BME280;54261;46.086;6.588;2022-08-27T20:51:24;92352.19;;;21.10;38.59
67377;BME280;54261;46.086;6.588;2022-08-27T20:56:26;92349.41;;;20.99;38.67
67377;BME280;54261;46.086;6.588;2022-08-27T21:01:28;92349.69;;;20.54;39.48
67377;BME280;54261;46.086;6.588;2022-08-27T21:06:30;92348.69;;;20.10;40.36
67377;BME280;54261;46.086;6.588;2022-08-27T21:11:34;92353.63;;;20.67;38.89
67377;BME280;54261;46.086;6.588;2022-08-27T21:16:36;92368.50;;;20.99;38.41
67377;BME280;54261;46.086;6.588;2022-08-27T21:21:38;92358.38;;;20.96;37.59
67377;BME280;54261;46.086;6.588;2022-08-27T21:26:41;92360.75;;;20.09;39.77
67377;BME280;54261;46.086;6.588;2022-08-27T21:31:43;92372.41;;;20.09;39.69
67377;BME280;54261;46.086;6.588;2022-08-27T21:36:45;92357.53;;;19.88;40.40
67377;BME280;54261;46.086;6.588;2022-08-27T21:41:48;92379.09;;;20.15;39.85
67377;BME280;54261;46.086;6.588;2022-08-27T21:46:50;92361.78;;;19.86;40.84
67377;BME280;54261;46.086;6.588;2022-08-27T21:51:52;92371.44;;;20.43;39.30
67377;BME280;54261;46.086;6.588;2022-08-27T21:56:54;92356.31;;;20.56;38.67
67377;BME280;54261;46.086;6.588;2022-08-27T22:01:57;92355.91;;;20.47;38.87
67377;BME280;54261;46.086;6.588;2022-08-27T22:07:02;92359.84;;;20.68;38.57
67377;BME280;54261;46.086;6.588;2022-08-27T22:12:04;92359.09;;;20.78;38.42
67377;BME280;54261;46.086;6.588;2022-08-27T22:17:06;92346.50;;;20.37;38.92
67377;BME280;54261;46.086;6.588;2022-08-27T22:22:09;92360.56;;;20.50;39.18
67377;BME280;54261;46.086;6.588;2022-08-27T22:27:11;92356.66;;;20.48;38.77
67377;BME280;54261;46.086;6.588;2022-08-27T22:32:13;92363.34;;;20.65;38.30
67377;BME280;54261;46.086;6.588;2022-08-27T22:37:15;92354.34;;;20.50;38.43
67377;BME280;54261;46.086;6.588;2022-08-27T22:42:18;92362.09;;;20.40;38.47
67377;BME280;54261;46.086;6.588;2022-08-27T22:47:20;92357.38;;;20.30;38.47
67377;BME280;54261;46.086;6.588;2022-08-27T22:52:23;92357.47;;;20.52;38.21
67377;BME280;54261;46.086;6.588;2022-08-27T22:57:29;92350.81;;;20.42;38.45
67377;BME280;54261;46.086;6.588;2022-08-27T23:02:31;92347.34;;;20.45;38.22
67377;BME280;54261;46.086;6.588;2022-08-27T23:07:33;92348.22;;;19.89;39.62
67377;BME280;54261;46.086;6.588;2022-08-27T23:12:35;92350.78;;;19.64;39.89
67377;BME280;54261;46.086;6.588;2022-08-27T23:17:39;92358.00;;;20.01;39.17
67377;BME280;54261;46.086;6.588;2022-08-27T23:22:42;92362.22;;;19.39;40.02
67377;BME280;54261;46.086;6.588;2022-08-27T23:27:46;92366.00;;;19.72;39.35
67377;BME280;54261;46.086;6.588;2022-08-27T23:32:48;92363.63;;;19.67;39.29
67377;BME280;54261;46.086;6.588;2022-08-27T23:37:55;92374.31;;;18.97;41.25
67377;BME280;54261;46.086;6.588;2022-08-27T23:42:57;92367.13;;;19.19;40.95
67377;BME280;54261;46.086;6.588;2022-08-27T23:48:00;92357.19;;;19.41;39.98
67377;BME280;54261;46.086;6.588;2022-08-27T23:53:03;92372.94;;;18.80;41.79
67377;BME280;54261;46.086;6.588;2022-08-27T23:58:07;92371.81;;;18.84;41.68
